默认 日期 大小 文件数 浏览量 最新下载 xml
01 31磁力链接相关资源由用户搜索指令自动获取,结果来源于网络,本站不存储任何资料,亦不承担任何责任,请于24小时内删除,搜索到9291个磁力,显示前4000条数据,用时23ms。
    {"RARBG.com.txt": 34, "atke.16.01.31.nicole.vice.toys.2.mp4": 712632060, "atke.16.01.31.nicole.vice.toys.2.nfo": 5193}
创建时间: 2018-12-23 08:49:18 大小:679.62 MB 文件数量:3 热度:10 最近下载:2025-08-11 17:14:01
    {"RARBG.txt": 30, "sexart.18.01.31.belle.claire.stay.alone.4k.mp4": 6461220995, "sexart.18.01.31.belle.claire.stay.alone.4k.nfo": 5190}
创建时间: 2018-12-23 09:13:42 大小:6.02 GB 文件数量:3 热度:115 最近下载:2025-08-28 23:39:03
    {"001.jpg": 380357, "002.jpg": 428576, "003.jpg": 394970, "004.jpg": 357993, "005.jpg": 379019, "006.jpg": 356670, "007.jpg": 355428, "008.jpg": 366207, "009.jpg": 376307, "010.jpg": 332383, "011.jpg": 404590, "012.jpg": 312696, "013.jpg": 369613, "014.jpg ...
创建时间: 2018-12-23 11:17:14 大小:32.3 MB 文件数量:114 热度:9 最近下载:2024-12-28 19:39:02
    {"RARBG.com.txt": 34, "i.cc130131v4208.nfo": 2669, "i.cc130131v4208.wmv": 704168227}
创建时间: 2018-12-23 12:02:24 大小:671.55 MB 文件数量:3 热度:7 最近下载:2025-03-17 11:29:01
    {"RARBG.txt": 30, "ultimatesurrender.18.01.31.charlotte.sartre.and.london.river.mp4": 1624264774, "ultimatesurrender.18.01.31.charlotte.sartre.and.london.river.nfo": 5221}
创建时间: 2018-12-23 12:36:23 大小:1.51 GB 文件数量:3 热度:18 最近下载:2024-12-24 17:04:01
    ... Drug Binding (2015).pdf": 3688951, "01. QSAR - Hansch Analysis and Related ... 2nd ed (2012).pdf": 7054103, "31. Pharmacokinetics and Metabolism in Drug ...
创建时间: 2018-12-23 12:57:27 大小:735.85 MB 文件数量:70 热度:13 最近下载:2024-12-09 11:34:03
    {"RARBG.txt": 30, "DDFBusty.17.01.31.Emma.Butt.XXX.SD.MP4-RARBG.mp4": 165530985, "DDFBusty.17.01.31.Emma.Butt.XXX.SD.MP4-RARBG.nfo": 3558}
创建时间: 2018-12-23 13:41:48 大小:157.87 MB 文件数量:3 热度:9 最近下载:2025-08-01 14:54:02
    {"RARBG.txt": 30, "ddfb.17.01.31.emma.butt.mp4": 1184603309, "ddfb.17.01.31.emma.butt.nfo": 5180}
创建时间: 2018-12-23 14:02:39 大小:1.1 GB 文件数量:3 热度:33 最近下载:2025-08-25 11:24:02
    {"ktr.xlg.13.01.31.marilyn.mayson.an.xl.girl.doubles.her.pleasure.nfo": 6909, "ktr.xlg.13.01.31.marilyn.mayson.an.xl.girl.doubles.her.pleasure.wmv": 366183690}
创建时间: 2018-12-23 14:25:49 大小:349.23 MB 文件数量:2 热度:12 最近下载:2025-02-12 06:59:03
    {"RARBG.com.txt": 34, "nubiles.15.01.31.daniella.rose.tight.fit.mp4": 778578937, "nubiles.15.01.31.daniella.rose.tight.fit.nfo": 6975}
创建时间: 2018-12-23 15:29:59 大小:742.52 MB 文件数量:3 热度:9 最近下载:2022-04-23 05:55:06
    {"file_id.diz": 83, "gagball.nfo": 261, "RARBG.com.txt": 34, "iwia-fancybikini.001.jpg": 835483, "iwia-fancybikini.002.jpg": 604343, "iwia-fancybikini.003.jpg": 627476, "iwia-fancybikini.004.jpg": 802915, "iwia-fancybikini.005.jpg": 782114, "iwia- ...
创建时间: 2018-12-23 16:09:14 大小:56.17 MB 文件数量:73 热度:10 最近下载:2022-04-23 06:16:02
    {"RARBG.com.txt": 34, "jay004014011396HD001.wmv": 459675459}
创建时间: 2018-12-23 16:21:33 大小:438.38 MB 文件数量:2 热度:7 最近下载:2025-03-06 01:38:03
    {"rws_katrina_jade_tt011315_480p_2000.mp4": 556403202}
创建时间: 2018-12-23 16:40:21 大小:530.63 MB 文件数量:1 热度:36 最近下载:2025-04-30 16:30:02
    {"RARBG.com.txt": 34, "ans.16.01.31.jenny.simmons.still.sexy.mp4": 1219626613, "ans.16.01.31.jenny.simmons.still.sexy.nfo": 5191}
创建时间: 2018-12-23 17:19:13 大小:1.14 GB 文件数量:3 热度:17 最近下载:2024-06-19 15:09:02
    {"RARBG.txt": 30, "fugli.nfo": 12171, "file_id.diz": 676, "RARBG.COM_XXX_BANNER.jpg": 517081, "_thelifeerotic-classical-cover.jpg": 348072, "thelifeerotic-classical-cover-clean.jpg": 112724, "thelifeerotic_classical_lola-s_high_0001.jpg": 4014836, " ...
创建时间: 2018-12-23 17:38:11 大小:423.97 MB 文件数量:129 热度:9 最近下载:2025-08-04 15:24:02
    {"RARBG.com.txt": 34, "playboyplus.14.01.31.samantha.leon.bedroom.eyes-sexors.mp4": 207205427, "playboyplus.14.01.31.samantha.leon.bedroom.eyes-sexors.nfo": 374}
创建时间: 2018-12-23 17:48:55 大小:197.61 MB 文件数量:3 热度:10 最近下载:2025-04-26 14:54:01
    {"RARBG.txt": 30, "tf.17.01.31.jessica.rex.tie.me.up.6.4k.mp4": 10285181879, "tf.17.01.31.jessica.rex.tie.me.up.6.4k.nfo": 5202}
创建时间: 2018-12-23 17:54:10 大小:9.58 GB 文件数量:3 热度:50 最近下载:2025-10-11 08:46:01
    {"RARBG.com.txt": 34, "ohrly-ww131bb.mp4": 451394065, "ohrly-ww131bb.nfo": 7157}
创建时间: 2018-12-23 17:57:17 大小:430.49 MB 文件数量:3 热度:5 最近下载:2022-05-16 05:41:32
    ... FuGLi": {"Sample": {"1By-Day.com_13.01.31.Baby.Nicole.Sweet.Frenzy.XXX ... ": 219551, "1By-Day.com_13.01.31.Baby.Nicole.Sweet.Frenzy.XXX ... ": 232690, "1By-Day.com_13.01.31.Baby.Nicole.Sweet.Frenzy.XXX ... ": 215759}, "1By-Day.com_13.01.31.Baby.Nicole.Sweet.Frenzy.XXX ...
创建时间: 2018-12-23 17:57:17 大小:19.19 MB 文件数量:96 热度:6 最近下载:2024-08-11 00:04:05
    {"RARBG.txt": 30, "MetArtX.17.01.31.Sybil.A.Tablet.Stories.3.XXX.SD.MP4-RARBG.mp4": 93441099, "MetArtX.17.01.31.Sybil.A.Tablet.Stories.3.XXX.SD.MP4-RARBG.nfo": 3587}
创建时间: 2018-12-23 19:57:56 大小:89.12 MB 文件数量:3 热度:30 最近下载:2025-10-07 12:54:01